Time;durP1;ratioP1;P1;durP2;ratioP2;P2;SDS_P1;SDS_P2;PMS_P1;PMS_P2;Temp;Humidity;BMP_temperature;BMP_pressure;BME280_temperature;BME280_humidity;BME280_pressure;Samples;Min_cycle;Max_cycle;Signal;HPM_P1;HPM_P2
2023/03/10 00:01:31;;;;;;;12.37;4.07;;;;;;;12.29;nan;99290.75;5002209;28;20046;-72
2023/03/10 00:03:58;;;;;;;17.08;3.95;;;;;;;12.28;nan;99294.28;4994813;28;20062;-72
2023/03/10 00:06:26;;;;;;;14.93;3.43;;;;;;;12.27;nan;99282.00;5000280;28;20038;-72
2023/03/10 00:08:52;;;;;;;16.85;4.13;;;;;;;12.20;nan;99283.09;5000008;28;20038;-72
2023/03/10 00:11:18;;;;;;;15.40;5.05;;;;;;;12.13;nan;99260.38;5000233;28;20027;-72
2023/03/10 00:13:44;;;;;;;19.20;4.30;;;;;;;12.09;nan;99248.19;5000092;28;20121;-71
2023/03/10 00:16:22;;;;;;;19.60;4.47;;;;;;;11.98;nan;99251.94;5004121;28;20434;-71
2023/03/10 00:18:48;;;;;;;18.77;4.95;;;;;;;11.96;nan;99251.13;5000015;28;20407;-72
2023/03/10 00:21:16;;;;;;;26.70;7.07;;;;;;;11.94;nan;99247.66;5000039;28;20056;-72
2023/03/10 00:23:42;;;;;;;19.70;5.65;;;;;;;11.94;nan;99247.66;4999765;28;20041;-72
2023/03/10 00:26:10;;;;;;;14.98;4.18;;;;;;;11.94;nan;99249.41;4999808;28;20406;-72
2023/03/10 00:28:36;;;;;;;22.25;6.15;;;;;;;11.94;nan;99245.03;4999797;28;20034;-72
2023/03/10 00:31:05;;;;;;;18.50;5.23;;;;;;;11.91;nan;99250.34;4999001;28;20517;-72
2023/03/10 00:33:32;;;;;;;20.05;4.90;;;;;;;11.87;nan;99257.50;4999842;28;20041;-72
2023/03/10 00:36:04;;;;;;;18.00;4.82;;;;;;;11.83;nan;99247.94;4999498;28;20070;-72
2023/03/10 00:38:29;;;;;;;17.03;4.13;;;;;;;11.83;nan;99253.22;5001897;28;20506;-72
2023/03/10 00:41:03;;;;;;;17.85;4.70;;;;;;;11.82;nan;99247.97;5006496;28;20445;-72
2023/03/10 00:43:28;;;;;;;19.43;4.63;;;;;;;11.84;nan;99246.16;4999627;28;20104;-72
2023/03/10 00:45:54;;;;;;;15.02;4.18;;;;;;;11.83;nan;99229.47;4999257;28;20564;-72
2023/03/10 00:48:20;;;;;;;14.40;4.77;;;;;;;11.84;nan;99238.22;4999531;28;20034;-72
2023/03/10 00:50:45;;;;;;;14.13;4.57;;;;;;;11.84;nan;99240.88;4999212;28;20061;-72
2023/03/10 00:53:11;;;;;;;15.40;4.40;;;;;;;11.83;nan;99231.22;4999458;28;20111;-72
2023/03/10 00:55:36;;;;;;;15.67;4.87;;;;;;;11.84;nan;99244.41;4999329;28;20478;-72
2023/03/10 00:58:01;;;;;;;18.73;4.73;;;;;;;11.84;nan;99235.59;5003049;28;20037;-72
2023/03/10 01:00:27;;;;;;;19.98;4.25;;;;;;;11.84;nan;99239.13;4986466;28;20053;-72
2023/03/10 01:02:52;;;;;;;20.67;4.30;;;;;;;11.80;nan;99242.72;4997655;28;20564;-71
2023/03/10 01:05:18;;;;;;;20.50;4.83;;;;;;;11.75;nan;99240.22;4995184;28;20546;-72
2023/03/10 01:07:44;;;;;;;12.63;4.38;;;;;;;11.71;nan;99233.28;4997576;28;20041;-72
2023/03/10 01:10:10;;;;;;;16.83;4.83;;;;;;;11.70;nan;99235.94;4998529;28;20030;-72
2023/03/10 01:12:36;;;;;;;21.73;5.50;;;;;;;11.70;nan;99231.56;4999234;28;20076;-72
2023/03/10 01:15:02;;;;;;;21.57;4.70;;;;;;;11.68;nan;99228.06;5001194;28;20124;-72
2023/03/10 01:17:27;;;;;;;19.83;4.47;;;;;;;11.63;nan;99228.22;4999089;28;20030;-71
2023/03/10 01:19:52;;;;;;;15.47;3.80;;;;;;;11.60;nan;99240.59;4999069;28;20394;-71
2023/03/10 01:22:18;;;;;;;16.33;5.07;;;;;;;11.58;nan;99247.69;4998656;28;20082;-71
2023/03/10 01:24:43;;;;;;;17.70;4.10;;;;;;;11.54;nan;99241.59;4997343;28;20050;-71
2023/03/10 01:27:08;;;;;;;17.10;4.03;;;;;;;11.50;nan;99232.03;4998699;28;20387;-71
2023/03/10 01:29:34;;;;;;;20.53;5.07;;;;;;;11.48;nan;99231.22;4983677;28;20833;-71
2023/03/10 01:31:59;;;;;;;17.10;4.70;;;;;;;11.45;nan;99221.63;4998441;28;20037;-71
2023/03/10 01:34:25;;;;;;;18.77;5.20;;;;;;;11.42;nan;99216.41;4998572;28;20402;-71
2023/03/10 01:36:50;;;;;;;16.45;4.75;;;;;;;11.41;nan;99224.38;4998660;28;20032;-71
2023/03/10 01:39:16;;;;;;;15.87;4.33;;;;;;;11.42;nan;99213.78;5005503;28;20080;-71
2023/03/10 01:41:41;;;;;;;15.07;4.20;;;;;;;11.43;nan;99217.28;5000652;28;20058;-71
2023/03/10 01:44:24;;;;;;;11.90;3.67;;;;;;;11.40;nan;99223.47;4998330;28;20034;-71
2023/03/10 01:46:54;;;;;;;11.68;3.80;;;;;;;11.41;nan;99224.38;4998546;28;20034;-71
2023/03/10 01:49:33;;;;;;;16.67;4.25;;;;;;;11.35;nan;99222.75;4998550;28;20049;-72
2023/03/10 01:51:58;;;;;;;13.98;3.40;;;;;;;11.34;nan;99236.81;4998181;28;20081;-72
2023/03/10 01:54:29;;;;;;;20.97;4.00;;;;;;;11.31;nan;99223.72;4998011;28;20027;-71
2023/03/10 01:56:56;;;;;;;13.15;3.40;;;;;;;11.28;nan;99226.44;5001673;28;20486;-71
2023/03/10 01:59:22;;;;;;;16.42;3.72;;;;;;;11.26;nan;99210.66;4986970;28;20026;-71
2023/03/10 02:01:50;;;;;;;15.37;3.50;;;;;;;11.25;nan;99218.59;4996483;28;20048;-71
2023/03/10 02:04:22;;;;;;;12.70;3.17;;;;;;;11.19;nan;99223.09;4991282;28;20032;-71
2023/03/10 02:06:49;;;;;;;12.95;3.80;;;;;;;11.18;nan;99223.16;4997921;28;20041;-71
2023/03/10 02:09:17;;;;;;;13.90;3.72;;;;;;;11.18;nan;99213.44;4997841;28;20088;-71
2023/03/10 02:11:46;;;;;;;19.77;5.80;;;;;;;11.19;nan;99223.09;4997854;28;20490;-71
2023/03/10 02:14:11;;;;;;;12.30;3.00;;;;;;;11.20;nan;99224.81;4997816;28;20110;-72
2023/03/10 02:16:37;;;;;;;19.45;5.47;;;;;;;11.21;nan;99215.16;5001704;28;20057;-72
2023/03/10 02:19:07;;;;;;;10.33;2.90;;;;;;;11.22;nan;99218.69;4997968;28;20023;-72
2023/03/10 02:21:48;;;;;;;13.55;3.00;;;;;;;11.22;nan;99223.94;4997150;28;20105;-72
2023/03/10 02:24:19;;;;;;;16.58;3.42;;;;;;;11.25;nan;99229.16;4997424;28;20058;-72
2023/03/10 02:27:23;;;;;;;14.90;3.00;;;;;;;11.23;nan;99225.69;4979924;28;20027;-72
2023/03/10 02:30:07;;;;;;;13.07;2.20;;;;;;;11.27;nan;99235.25;4972363;28;20042;-72
2023/03/10 02:32:37;;;;;;;32.90;11.35;;;;;;;11.28;nan;99255.41;4997549;28;20434;-71
2023/03/10 02:35:03;;;;;;;13.98;3.42;;;;;;;11.28;nan;99234.34;4997202;28;20053;-71
2023/03/10 02:37:31;;;;;;;14.38;4.18;;;;;;;11.27;nan;99236.09;4996305;28;20114;-71
2023/03/10 02:39:57;;;;;;;13.37;2.40;;;;;;;11.28;nan;99235.19;5003642;28;20026;-72
2023/03/10 02:42:28;;;;;;;13.52;3.30;;;;;;;11.30;nan;99243.91;4999421;28;20062;-72
2023/03/10 02:44:54;;;;;;;22.67;6.32;;;;;;;11.36;nan;99247.34;4997365;28;20026;-72
2023/03/10 02:47:19;;;;;;;15.80;4.25;;;;;;;11.39;nan;99258.66;4996090;28;20022;-72
2023/03/10 02:49:45;;;;;;;14.97;3.00;;;;;;;11.43;nan;99262.94;4997267;28;20033;-72
2023/03/10 02:52:38;;;;;;;14.77;2.63;;;;;;;11.36;nan;99264.00;4996010;28;20026;-72
2023/03/10 02:55:04;;;;;;;48.42;15.70;;;;;;;11.38;nan;99262.19;4997247;28;20096;-72
2023/03/10 02:57:29;;;;;;;17.58;4.53;;;;;;;11.32;nan;99247.38;5000964;28;20026;-72
2023/03/10 02:59:54;;;;;;;10.13;1.60;;;;;;;11.39;nan;99244.63;4982898;28;20050;-72
2023/03/10 03:02:20;;;;;;;8.17;1.40;;;;;;;11.43;nan;99252.41;4999341;28;20419;-72
2023/03/10 03:04:45;;;;;;;17.53;1.80;;;;;;;11.55;nan;99242.47;4991792;28;20414;-72
2023/03/10 03:07:11;;;;;;;19.70;1.70;;;;;;;11.68;nan;99232.50;4997251;28;20076;-72
2023/03/10 03:09:36;;;;;;;11.20;1.30;;;;;;;11.82;nan;99234.78;4997034;28;20754;-72
2023/03/10 03:12:02;;;;;;;13.27;1.57;;;;;;;11.90;nan;99238.06;4997181;28;20483;-72
2023/03/10 03:14:27;;;;;;;9.98;1.25;;;;;;;12.01;nan;99237.81;4998242;28;20026;-72
2023/03/10 03:16:53;;;;;;;11.27;1.40;;;;;;;12.10;nan;99234.06;4998938;28;20035;-72
2023/03/10 03:19:18;;;;;;;15.60;1.10;;;;;;;12.18;nan;99225.03;4997135;28;20050;-72
2023/03/10 03:21:48;;;;;;;12.80;1.27;;;;;;;12.27;nan;99231.84;4993654;28;20031;-72
2023/03/10 03:24:17;;;;;;;11.98;2.08;;;;;;;12.32;nan;99229.94;4977632;28;20031;-72
2023/03/10 03:26:43;;;;;;;9.10;1.10;;;;;;;12.41;nan;99220.00;4977559;28;20026;-72
2023/03/10 03:29:10;;;;;;;10.40;1.05;;;;;;;12.46;nan;99215.50;4977785;28;20515;-72
2023/03/10 03:31:37;;;;;;;12.75;1.58;;;;;;;12.47;nan;99204.03;4993941;28;20077;-72
2023/03/10 03:34:03;;;;;;;14.47;1.40;;;;;;;12.48;nan;99219.81;5000831;28;20033;-72
2023/03/10 03:36:29;;;;;;;12.73;1.45;;;;;;;12.52;nan;99222.34;5000638;28;20022;-72
2023/03/10 03:38:54;;;;;;;11.18;1.50;;;;;;;12.53;nan;99222.31;5005034;28;20029;-72
2023/03/10 03:41:20;;;;;;;13.53;1.37;;;;;;;12.58;nan;99220.41;5004168;28;20117;-72
2023/03/10 03:43:45;;;;;;;10.80;1.43;;;;;;;12.59;nan;99224.78;4999490;28;20026;-72
2023/03/10 03:46:10;;;;;;;8.63;1.00;;;;;;;12.60;nan;99217.72;4999024;28;20022;-72
2023/03/10 03:48:37;;;;;;;13.40;1.27;;;;;;;12.65;nan;99218.44;5000629;28;20034;-72
2023/03/10 03:51:02;;;;;;;12.40;1.30;;;;;;;12.71;nan;99220.06;4999164;28;20030;-72
2023/03/10 03:53:28;;;;;;;13.80;1.43;;;;;;;12.77;nan;99225.16;5000653;28;20041;-72
2023/03/10 03:55:53;;;;;;;9.47;1.00;;;;;;;12.77;nan;99228.63;5000369;28;20093;-72
2023/03/10 03:58:19;;;;;;;10.00;0.97;;;;;;;12.84;nan;99234.59;5002397;28;20269;-72
2023/03/10 04:00:45;;;;;;;12.97;1.03;;;;;;;12.88;nan;99238.03;4988075;28;20086;-72
2023/03/10 04:03:10;;;;;;;15.80;2.05;;;;;;;12.92;nan;99245.84;4996300;28;20019;-72
2023/03/10 04:05:36;;;;;;;13.07;1.10;;;;;;;12.96;nan;99241.31;4998719;28;20049;-72
2023/03/10 04:08:01;;;;;;;9.60;1.23;;;;;;;12.97;nan;99247.47;5000173;28;20022;-72
2023/03/10 04:10:27;;;;;;;12.27;1.60;;;;;;;13.00;nan;99244.72;4998779;28;20030;-72
2023/03/10 04:12:53;;;;;;;15.50;1.48;;;;;;;12.96;nan;99233.38;5000098;28;20022;-72
2023/03/10 04:15:19;;;;;;;14.80;1.30;;;;;;;13.00;nan;99242.09;5003813;28;20431;-72
2023/03/10 04:17:44;;;;;;;13.52;1.45;;;;;;;13.01;nan;99239.38;4986604;28;20023;-72
2023/03/10 04:20:13;;;;;;;11.17;1.10;;;;;;;13.07;nan;99240.97;4980363;28;20066;-72
2023/03/10 04:22:38;;;;;;;12.20;1.42;;;;;;;13.09;nan;99233.84;4980506;28;20549;-72
2023/03/10 04:25:05;;;;;;;10.00;1.30;;;;;;;13.12;nan;99246.97;4980486;28;20050;-72
2023/03/10 04:27:30;;;;;;;9.32;1.00;;;;;;;13.15;nan;99270.69;4979075;28;20015;-72
2023/03/10 04:29:56;;;;;;;15.20;1.70;;;;;;;13.21;nan;99278.44;4981616;28;20026;-72
2023/03/10 04:32:22;;;;;;;10.43;1.40;;;;;;;13.23;nan;99265.16;4999673;28;20276;-72
2023/03/10 04:34:47;;;;;;;8.40;0.90;;;;;;;13.27;nan;99282.66;4999594;28;20033;-72
2023/03/10 04:37:12;;;;;;;13.63;1.37;;;;;;;13.30;nan;99289.63;4998389;28;20033;-72
2023/03/10 04:39:38;;;;;;;12.63;1.20;;;;;;;13.32;nan;99311.59;5007111;28;20073;-72
2023/03/10 04:42:04;;;;;;;14.40;1.63;;;;;;;13.32;nan;99304.53;5000336;28;20049;-72
2023/03/10 04:44:29;;;;;;;17.07;1.50;;;;;;;13.24;nan;99300.41;4998368;28;20375;-72
2023/03/10 04:46:54;;;;;;;16.10;1.80;;;;;;;13.24;nan;99314.47;4999709;28;20482;-72
2023/03/10 04:49:20;;;;;;;14.67;1.40;;;;;;;13.30;nan;99324.88;4999426;28;20040;-72
2023/03/10 04:51:45;;;;;;;16.23;1.80;;;;;;;13.23;nan;99333.03;4999283;28;20060;-72
2023/03/10 04:54:11;;;;;;;14.83;2.13;;;;;;;13.23;nan;99333.03;4999185;28;20106;-72
2023/03/10 04:56:36;;;;;;;15.10;1.15;;;;;;;13.26;nan;99346.16;4998940;28;20048;-72
2023/03/10 04:59:02;;;;;;;16.37;1.80;;;;;;;13.31;nan;99347.75;4994402;28;20121;-72
2023/03/10 05:01:31;;;;;;;17.35;1.55;;;;;;;13.38;nan;99352.84;4993109;28;20057;-72
2023/03/10 05:04:00;;;;;;;16.67;2.00;;;;;;;13.32;nan;99344.19;4993542;28;20392;-72
2023/03/10 05:06:27;;;;;;;19.92;1.95;;;;;;;13.37;nan;99351.97;4997931;28;20030;-72
2023/03/10 05:08:53;;;;;;;17.23;2.20;;;;;;;13.40;nan;99346.63;4999149;28;20061;-72
2023/03/10 05:11:19;;;;;;;20.15;1.88;;;;;;;13.40;nan;99359.84;4999452;28;20047;-72
2023/03/10 05:13:45;;;;;;;30.00;2.23;;;;;;;13.43;nan;99358.91;4993964;28;20038;-72
2023/03/10 05:16:21;;;;;;;17.58;2.13;;;;;;;13.43;nan;99364.19;4998261;28;20041;-72
2023/03/10 05:18:47;;;;;;;17.35;1.55;;;;;;;13.51;nan;99371.88;4999166;28;20096;-72
2023/03/10 05:21:12;;;;;;;14.83;1.57;;;;;;;13.43;nan;99377.41;4999163;28;20030;-72
2023/03/10 05:23:38;;;;;;;15.82;1.90;;;;;;;13.51;nan;99385.13;4999210;28;20049;-72
2023/03/10 05:26:05;;;;;;;25.30;2.83;;;;;;;13.46;nan;99391.41;4999154;28;20038;-72
2023/03/10 05:28:31;;;;;;;17.88;2.78;;;;;;;13.48;nan;99396.63;4999015;28;20026;-72
2023/03/10 05:30:56;;;;;;;22.07;2.30;;;;;;;13.47;nan;99397.56;4998516;28;20041;-72
2023/03/10 05:33:22;;;;;;;19.17;1.95;;;;;;;13.51;nan;99412.44;4992890;28;20031;-72
2023/03/10 05:35:48;;;;;;;19.53;2.17;;;;;;;13.46;nan;99411.69;4979298;28;20500;-72
2023/03/10 05:38:14;;;;;;;23.35;2.42;;;;;;;13.52;nan;99415.94;4979320;28;20034;-72
2023/03/10 05:40:40;;;;;;;18.30;1.80;;;;;;;13.55;nan;99418.50;5007976;28;20018;-72
2023/03/10 05:43:05;;;;;;;23.50;2.38;;;;;;;13.56;nan;99404.34;4997531;28;20050;-72
2023/03/10 05:45:30;;;;;;;20.40;2.40;;;;;;;13.51;nan;99409.81;4998471;28;20434;-72
2023/03/10 05:47:56;;;;;;;27.80;2.37;;;;;;;13.48;nan;99429.25;4998565;28;20030;-72
2023/03/10 05:50:21;;;;;;;24.30;2.43;;;;;;;13.48;nan;99425.72;4998515;28;20391;-72
2023/03/10 05:52:46;;;;;;;22.43;2.47;;;;;;;13.48;nan;99426.63;4998213;28;20030;-72
2023/03/10 05:55:17;;;;;;;23.50;2.77;;;;;;;13.37;nan;99441.03;4998600;28;20348;-72
2023/03/10 05:57:43;;;;;;;19.92;2.00;;;;;;;13.19;nan;99433.59;5000961;28;20061;-72
2023/03/10 06:00:10;;;;;;;22.60;2.47;;;;;;;13.21;nan;99447.63;4985470;28;20483;-72
2023/03/10 06:02:38;;;;;;;19.58;2.25;;;;;;;13.12;nan;99434.66;4998585;28;20080;-72
2023/03/10 06:05:07;;;;;;;28.48;2.55;;;;;;;13.05;nan;99430.44;4992688;28;20105;-71
2023/03/10 06:07:33;;;;;;;19.33;2.35;;;;;;;13.19;nan;99438.88;4997047;28;20066;-72
2023/03/10 06:09:58;;;;;;;18.50;2.47;;;;;;;13.21;nan;99438.81;4996033;28;20380;-72
2023/03/10 06:12:24;;;;;;;23.90;2.38;;;;;;;13.25;nan;99444.91;4978740;28;20049;-72
2023/03/10 06:14:49;;;;;;;17.53;2.30;;;;;;;13.26;nan;99451.91;4985246;28;20513;-72
2023/03/10 06:17:15;;;;;;;20.93;2.67;;;;;;;13.27;nan;99461.56;4996874;28;20443;-72
2023/03/10 06:19:40;;;;;;;20.40;2.28;;;;;;;13.25;nan;99460.75;4997976;28;20033;-72
2023/03/10 06:22:06;;;;;;;23.80;2.60;;;;;;;13.23;nan;99470.50;4997980;28;20022;-72
2023/03/10 06:24:31;;;;;;;19.40;2.20;;;;;;;13.11;nan;99479.66;4997727;28;20089;-72
2023/03/10 06:26:56;;;;;;;21.70;2.40;;;;;;;13.09;nan;99476.19;4998164;28;20045;-72
2023/03/10 06:29:24;;;;;;;19.23;2.57;;;;;;;13.14;nan;99493.66;4997728;28;20054;-72
2023/03/10 06:31:50;;;;;;;20.07;2.33;;;;;;;13.06;nan;99491.22;4995082;28;20282;-72
2023/03/10 06:34:16;;;;;;;19.20;2.50;;;;;;;13.09;nan;99489.41;4997035;28;20049;-72
2023/03/10 06:36:42;;;;;;;17.97;2.30;;;;;;;13.06;nan;99507.06;4991400;28;20250;-72
2023/03/10 06:39:08;;;;;;;22.75;2.50;;;;;;;13.01;nan;99502.81;4995252;28;20396;-72
2023/03/10 06:41:36;;;;;;;20.70;2.47;;;;;;;13.08;nan;99499.09;4999885;28;20033;-72
2023/03/10 06:44:02;;;;;;;23.98;2.75;;;;;;;13.07;nan;99506.16;4997575;28;20057;-72
2023/03/10 06:46:28;;;;;;;20.67;2.57;;;;;;;13.07;nan;99507.91;4997266;28;20498;-72
2023/03/10 06:48:54;;;;;;;18.27;2.20;;;;;;;13.20;nan;99519.03;4997566;28;20614;-72
2023/03/10 06:51:21;;;;;;;23.73;2.67;;;;;;;13.16;nan;99523.56;4997615;28;20042;-72
2023/03/10 06:53:48;;;;;;;22.05;2.13;;;;;;;13.15;nan;99527.13;4996014;28;20482;-72
2023/03/10 06:56:21;;;;;;;20.25;2.38;;;;;;;13.20;nan;99543.72;4994946;28;20843;-71
2023/03/10 06:58:47;;;;;;;18.92;2.30;;;;;;;13.35;nan;99557.41;5000215;28;20018;-68
2023/03/10 07:01:39;;;;;;;24.55;2.42;;;;;;;13.32;nan;99549.56;4999628;28;20050;-68
2023/03/10 07:04:04;;;;;;;24.77;2.40;;;;;;;13.49;nan;99563.25;4985466;28;20391;-68
2023/03/10 07:06:30;;;;;;;19.05;2.28;;;;;;;13.58;nan;99558.59;4985454;28;20084;-68
2023/03/10 07:08:55;;;;;;;23.43;2.97;;;;;;;13.64;nan;99566.38;5003777;28;20026;-72
2023/03/10 07:11:23;;;;;;;23.05;2.13;;;;;;;13.73;nan;99576.69;4999132;28;20037;-72
2023/03/10 07:13:49;;;;;;;19.52;2.72;;;;;;;13.74;nan;99589.00;5003600;28;20113;-72
2023/03/10 07:16:15;;;;;;;20.33;2.30;;;;;;;13.83;nan;99582.59;5007750;28;20026;-72
2023/03/10 07:18:40;;;;;;;26.33;2.40;;;;;;;13.91;nan;99585.88;4985396;28;20030;-71
2023/03/10 07:21:12;;;;;;;17.90;2.50;;;;;;;14.12;nan;99593.25;4999617;28;20034;-74
2023/03/10 07:23:38;;;;;;;24.98;2.42;;;;;;;14.23;nan;99592.91;5002175;28;20406;-71
2023/03/10 07:26:07;;;;;;;29.02;2.92;;;;;;;14.34;nan;99594.31;4999448;28;20034;-74
2023/03/10 07:28:36;;;;;;;21.30;2.65;;;;;;;14.50;nan;99607.09;4999367;28;20101;-72
2023/03/10 07:31:08;;;;;;;21.07;2.60;;;;;;;14.80;nan;99614.19;4999545;28;20037;-75
2023/03/10 07:33:33;;;;;;;20.67;2.22;;;;;;;15.47;nan;99605.72;5003248;28;20077;-73
2023/03/10 07:36:04;;;;;;;24.38;2.83;;;;;;;15.90;nan;99626.41;5000279;28;20069;-73
2023/03/10 07:38:29;;;;;;;28.27;2.93;;;;;;;16.26;nan;99609.13;5002336;28;20557;-72
2023/03/10 07:40:54;;;;;;;18.57;2.50;;;;;;;16.45;nan;99601.31;5010669;28;20120;-72
2023/03/10 07:43:20;;;;;;;23.47;2.87;;;;;;;16.75;nan;99619.63;5001549;28;20277;-72
2023/03/10 07:45:45;;;;;;;22.97;2.77;;;;;;;16.62;nan;99620.13;5002040;28;20066;-72
2023/03/10 07:48:10;;;;;;;20.53;2.90;;;;;;;16.72;nan;99628.59;4998641;28;20022;-72
2023/03/10 07:50:36;;;;;;;26.13;3.30;;;;;;;16.61;nan;99637.00;5002845;28;20045;-72
2023/03/10 07:53:01;;;;;;;26.87;3.17;;;;;;;16.36;nan;99635.31;5003453;28;20030;-72
2023/03/10 07:55:27;;;;;;;22.03;3.17;;;;;;;16.08;nan;99638.13;5000127;28;20304;-72
2023/03/10 07:57:55;;;;;;;26.93;4.03;;;;;;;15.69;nan;99633.31;5007530;28;20093;-72
2023/03/10 08:00:21;;;;;;;28.35;3.42;;;;;;;15.42;nan;99644.84;4989746;28;20042;-72
2023/03/10 08:02:46;;;;;;;26.83;3.37;;;;;;;15.07;nan;99644.22;4996862;28;20066;-72
2023/03/10 08:05:13;;;;;;;22.95;2.88;;;;;;;14.83;nan;99654.72;5003577;28;20486;-72
2023/03/10 08:07:39;;;;;;;25.47;3.17;;;;;;;14.56;nan;99665.19;5002402;28;20034;-73
2023/03/10 08:10:05;;;;;;;25.88;3.08;;;;;;;14.26;nan;99654.59;5002967;28;20101;-72
2023/03/10 08:12:31;;;;;;;25.65;2.63;;;;;;;14.04;nan;99670.25;5001907;28;20036;-72
2023/03/10 08:14:56;;;;;;;25.87;2.87;;;;;;;13.92;nan;99687.34;5006961;28;20517;-72
2023/03/10 08:17:29;;;;;;;23.73;2.63;;;;;;;13.74;nan;99683.38;5002724;28;20610;-72
2023/03/10 08:19:54;;;;;;;23.07;3.47;;;;;;;13.65;nan;99697.75;4999054;28;20038;-72
2023/03/10 08:22:20;;;;;;;31.77;2.92;;;;;;;13.57;nan;99697.06;4999845;28;20038;-72
2023/03/10 08:24:45;;;;;;;16.90;2.00;;;;;;;13.53;nan;99706.00;4999891;28;20490;-72
2023/03/10 08:27:10;;;;;;;27.50;2.83;;;;;;;13.53;nan;99717.47;4999304;28;20030;-72
2023/03/10 08:29:36;;;;;;;26.52;2.22;;;;;;;13.55;nan;99709.47;4999484;28;20038;-72
2023/03/10 08:32:02;;;;;;;29.10;2.93;;;;;;;13.53;nan;99721.88;4999737;28;20030;-72
2023/03/10 08:34:31;;;;;;;28.33;3.00;;;;;;;13.59;nan;99721.69;4999774;28;20030;-72
2023/03/10 08:36:57;;;;;;;20.90;2.08;;;;;;;13.56;nan;99732.34;4999318;28;20030;-72
2023/03/10 08:39:23;;;;;;;15.10;1.83;;;;;;;13.58;nan;99733.19;5006989;28;20168;-72
2023/03/10 08:41:48;;;;;;;18.73;1.80;;;;;;;13.73;nan;99738.09;5001902;28;20062;-72
2023/03/10 08:44:16;;;;;;;20.00;1.77;;;;;;;13.93;nan;99742.00;4999178;28;20450;-72
2023/03/10 08:46:44;;;;;;;16.98;2.08;;;;;;;14.32;nan;99739.16;4999371;28;20029;-71
2023/03/10 08:49:10;;;;;;;22.58;2.25;;;;;;;16.02;nan;99736.63;4998794;28;20045;-72
2023/03/10 08:51:36;;;;;;;19.27;2.67;;;;;;;18.19;nan;99737.91;4999430;28;20031;-72
2023/03/10 08:54:03;;;;;;;16.52;2.35;;;;;;;20.08;nan;99750.31;4999381;28;20045;-72
2023/03/10 08:56:28;;;;;;;15.73;2.58;;;;;;;21.66;nan;99729.28;4999064;28;20117;-72
2023/03/10 08:58:57;;;;;;;12.87;2.60;;;;;;;23.11;nan;99745.47;5003190;28;20050;-72
2023/03/10 09:01:25;;;;;;;17.77;2.75;;;;;;;24.16;nan;99752.91;5001876;28;20491;-73
2023/03/10 09:03:51;;;;;;;15.63;3.03;;;;;;;24.81;nan;99753.78;4992619;28;20086;-73
2023/03/10 09:06:17;;;;;;;16.95;2.42;;;;;;;23.66;nan;99756.22;4997613;28;20527;-73
2023/03/10 09:08:42;;;;;;;17.43;2.30;;;;;;;22.16;nan;99774.59;4999077;28;20335;-73
2023/03/10 09:11:13;;;;;;;19.42;3.25;;;;;;;21.50;nan;99794.41;4999150;28;20053;-72
2023/03/10 09:13:38;;;;;;;18.17;3.13;;;;;;;20.70;nan;99782.78;4999139;28;20087;-73
2023/03/10 09:16:04;;;;;;;17.98;3.28;;;;;;;20.90;nan;99792.44;5002990;28;20022;-73
2023/03/10 09:18:29;;;;;;;21.00;2.90;;;;;;;21.33;nan;99797.19;4998802;28;20109;-73
2023/03/10 09:20:55;;;;;;;16.30;2.40;;;;;;;21.79;nan;99793.72;4999066;28;20023;-73
2023/03/10 09:23:20;;;;;;;19.75;2.92;;;;;;;21.86;nan;99794.25;4998730;28;20130;-72
2023/03/10 09:25:46;;;;;;;19.23;2.57;;;;;;;21.61;nan;99809.03;4998846;28;20040;-73
2023/03/10 09:28:11;;;;;;;21.03;4.13;;;;;;;21.58;nan;99806.50;4997207;28;20025;-73
2023/03/10 09:30:39;;;;;;;16.00;2.60;;;;;;;21.74;nan;99818.09;4996530;28;20086;-72
2023/03/10 09:33:09;;;;;;;22.55;3.72;;;;;;;22.02;nan;99805.75;4998957;28;20018;-73
2023/03/10 09:35:35;;;;;;;18.02;2.83;;;;;;;22.53;nan;99822.47;4998459;28;20487;-73
2023/03/10 09:38:00;;;;;;;14.57;3.30;;;;;;;23.43;nan;99825.81;4998375;28;20023;-73
2023/03/10 09:40:26;;;;;;;17.77;3.27;;;;;;;24.50;nan;99825.91;5007376;28;20060;-73
2023/03/10 09:43:03;;;;;;;16.08;3.22;;;;;;;25.34;nan;99838.88;4999403;28;20049;-73
2023/03/10 09:45:37;;;;;;;19.20;3.03;;;;;;;26.36;nan;99838.56;4998262;28;20037;-73
2023/03/10 09:48:18;;;;;;;19.13;3.20;;;;;;;26.92;nan;99848.63;4995065;28;20036;-72
2023/03/10 09:50:49;;;;;;;17.17;3.27;;;;;;;26.67;nan;99848.81;4989305;28;20569;-72
2023/03/10 09:53:52;;;;;;;23.25;3.70;;;;;;;26.62;nan;99843.75;4989977;28;20023;-71
2023/03/10 09:56:22;;;;;;;18.65;3.83;;;;;;;26.86;nan;99846.38;4985784;28;20027;-73
2023/03/10 09:59:01;;;;;;;17.90;3.10;;;;;;;26.51;nan;99858.09;4996830;28;20054;-72
2023/03/10 10:01:30;;;;;;;18.80;3.55;;;;;;;27.31;nan;99855.47;4992525;28;20047;-72
2023/03/10 10:04:19;;;;;;;17.43;3.00;;;;;;;27.13;nan;99861.41;4993022;28;20030;-72
2023/03/10 10:06:46;;;;;;;16.40;2.90;;;;;;;26.10;nan;99871.06;4997376;28;20501;-71
2023/03/10 10:09:31;;;;;;;18.25;2.60;;;;;;;24.34;nan;99870.03;4996442;28;20061;-72
2023/03/10 10:12:05;;;;;;;18.80;3.13;;;;;;;23.40;nan;99858.25;4997667;28;20064;-72
2023/03/10 10:14:31;;;;;;;16.95;2.90;;;;;;;22.59;nan;99863.22;4999620;28;20524;-71
2023/03/10 10:17:18;;;;;;;16.37;2.60;;;;;;;21.95;nan;99874.09;4999259;28;20053;-71
2023/03/10 10:19:46;;;;;;;14.32;2.40;;;;;;;21.27;nan;99872.53;4997796;28;20029;-72
2023/03/10 10:22:23;;;;;;;16.80;2.42;;;;;;;20.61;nan;99881.28;4997803;28;20018;-71
2023/03/10 10:25:07;;;;;;;17.17;2.35;;;;;;;20.37;nan;99888.78;4997780;28;20067;-72
2023/03/10 10:27:32;;;;;;;17.38;2.65;;;;;;;20.00;nan;99896.84;4997797;28;20026;-71
2023/03/10 10:29:58;;;;;;;20.93;2.57;;;;;;;19.58;nan;99901.50;4996238;28;20037;-71
2023/03/10 10:32:24;;;;;;;18.13;2.53;;;;;;;19.54;nan;99909.72;4997963;28;20054;-72
2023/03/10 10:34:49;;;;;;;15.13;2.13;;;;;;;19.56;nan;99918.53;4996748;28;20351;-71
2023/03/10 10:37:31;;;;;;;18.60;2.10;;;;;;;18.96;nan;99917.63;4998235;28;20491;-71
2023/03/10 10:39:58;;;;;;;19.45;2.83;;;;;;;19.57;nan;99915.81;5006129;28;20025;-71
2023/03/10 10:42:25;;;;;;;15.10;2.40;;;;;;;20.24;nan;99912.63;4999178;28;20175;-71
2023/03/10 10:44:58;;;;;;;15.50;2.70;;;;;;;20.99;nan;99911.50;4998599;28;20521;-72
2023/03/10 10:47:27;;;;;;;21.70;3.17;;;;;;;22.36;nan;99904.81;4998874;28;20077;-72
2023/03/10 10:49:53;;;;;;;18.92;2.55;;;;;;;23.70;nan;99908.28;4998976;28;20034;-72
2023/03/10 10:52:22;;;;;;;17.48;2.67;;;;;;;23.80;nan;99925.56;4983302;28;20106;-72
2023/03/10 10:54:57;;;;;;;17.25;2.88;;;;;;;22.88;nan;99929.47;4978403;28;20077;-72
2023/03/10 10:57:35;;;;;;;19.73;2.90;;;;;;;22.27;nan;99932.19;4988212;28;20491;-72
2023/03/10 11:00:19;;;;;;;23.77;5.40;;;;;;;21.47;nan;99933.91;4982504;28;20475;-73
2023/03/10 11:02:45;;;;;;;20.83;2.70;;;;;;;21.29;nan;99940.25;4985290;28;20379;-72
2023/03/10 11:05:10;;;;;;;21.17;3.00;;;;;;;21.04;nan;99942.44;4999341;28;20053;-72
2023/03/10 11:07:36;;;;;;;19.85;2.90;;;;;;;20.68;nan;99937.19;4994513;28;20144;-72
2023/03/10 11:10:01;;;;;;;19.10;3.23;;;;;;;20.28;nan;99938.25;4982144;28;20101;-71
2023/03/10 11:12:42;;;;;;;16.90;3.17;;;;;;;20.06;nan;99944.66;4978082;28;20019;-71
2023/03/10 11:15:41;;;;;;;18.38;3.10;;;;;;;19.75;nan;99940.78;4986971;28;20192;-71
2023/03/10 11:18:16;;;;;;;18.92;2.88;;;;;;;20.00;nan;99939.63;4997267;28;20026;-72
2023/03/10 11:21:01;;;;;;;16.20;2.80;;;;;;;20.41;nan;99951.88;4997174;28;20065;-71
2023/03/10 11:23:39;;;;;;;20.55;2.80;;;;;;;20.56;nan;99936.84;4995354;28;20058;-71
2023/03/10 11:26:13;;;;;;;18.30;2.47;;;;;;;20.71;nan;99945.03;4984154;28;20065;-72
2023/03/10 11:29:06;;;;;;;23.92;2.58;;;;;;;20.06;nan;99944.66;4987596;28;20030;-72
2023/03/10 11:31:50;;;;;;;21.77;2.65;;;;;;;19.69;nan;99951.75;4995168;28;20027;-72
2023/03/10 11:34:24;;;;;;;16.83;2.38;;;;;;;19.40;nan;99943.28;4988105;28;20022;-72
2023/03/10 11:36:56;;;;;;;18.42;2.85;;;;;;;19.19;nan;99938.00;4990360;28;20038;-72
2023/03/10 11:39:35;;;;;;;16.70;2.30;;;;;;;18.82;nan;99944.94;4991621;28;20189;-72
2023/03/10 11:42:15;;;;;;;18.55;2.42;;;;;;;18.61;nan;99925.41;4996108;28;20029;-72
2023/03/10 11:44:53;;;;;;;17.95;3.10;;;;;;;18.42;nan;99926.19;4996343;28;20065;-72
2023/03/10 11:47:34;;;;;;;17.48;2.88;;;;;;;18.43;nan;99933.25;4994768;28;20564;-72